sensor_id;sensor_type;location;lat;lon;timestamp;temperature;humidity
67598;DHT22;62026;39.230;9.122;2023-05-10T00:01:47;19.60;66.30
67598;DHT22;62026;39.230;9.122;2023-05-10T00:04:13;19.60;66.30
67598;DHT22;62026;39.230;9.122;2023-05-10T00:06:39;19.60;66.40
67598;DHT22;62026;39.230;9.122;2023-05-10T00:09:05;19.60;66.30
67598;DHT22;62026;39.230;9.122;2023-05-10T00:11:32;19.60;66.30
67598;DHT22;62026;39.230;9.122;2023-05-10T00:13:58;19.60;66.30
67598;DHT22;62026;39.230;9.122;2023-05-10T00:16:23;19.60;66.20
67598;DHT22;62026;39.230;9.122;2023-05-10T00:18:49;19.60;66.10
67598;DHT22;62026;39.230;9.122;2023-05-10T00:21:16;19.50;66.00
67598;DHT22;62026;39.230;9.122;2023-05-10T00:23:41;19.60;65.90
67598;DHT22;62026;39.230;9.122;2023-05-10T00:26:07;19.50;65.80
67598;DHT22;62026;39.230;9.122;2023-05-10T00:28:33;19.60;65.90
67598;DHT22;62026;39.230;9.122;2023-05-10T00:30:59;19.50;65.90
67598;DHT22;62026;39.230;9.122;2023-05-10T00:33:25;19.50;65.90
67598;DHT22;62026;39.230;9.122;2023-05-10T00:35:51;19.50;66.10
67598;DHT22;62026;39.230;9.122;2023-05-10T00:38:18;19.50;66.00
67598;DHT22;62026;39.230;9.122;2023-05-10T00:40:44;19.50;66.20
67598;DHT22;62026;39.230;9.122;2023-05-10T00:43:17;19.50;66.40
67598;DHT22;62026;39.230;9.122;2023-05-10T00:45:43;19.50;66.50
67598;DHT22;62026;39.230;9.122;2023-05-10T00:48:11;19.50;66.80
67598;DHT22;62026;39.230;9.122;2023-05-10T00:50:37;19.40;67.20
67598;DHT22;62026;39.230;9.122;2023-05-10T00:53:05;19.40;67.60
67598;DHT22;62026;39.230;9.122;2023-05-10T00:55:32;19.50;67.70
67598;DHT22;62026;39.230;9.122;2023-05-10T00:57:58;19.50;68.10
67598;DHT22;62026;39.230;9.122;2023-05-10T01:00:24;19.40;68.20
67598;DHT22;62026;39.230;9.122;2023-05-10T01:02:53;19.40;68.30
67598;DHT22;62026;39.230;9.122;2023-05-10T01:05:19;19.40;68.40
67598;DHT22;62026;39.230;9.122;2023-05-10T01:07:45;19.40;68.40
67598;DHT22;62026;39.230;9.122;2023-05-10T01:10:11;19.40;68.40
67598;DHT22;62026;39.230;9.122;2023-05-10T01:12:40;19.40;68.50
67598;DHT22;62026;39.230;9.122;2023-05-10T01:15:09;19.40;68.40
67598;DHT22;62026;39.230;9.122;2023-05-10T01:17:38;19.40;68.40
67598;DHT22;62026;39.230;9.122;2023-05-10T01:20:07;19.40;68.70
67598;DHT22;62026;39.230;9.122;2023-05-10T01:31:18;19.30;69.80
67598;DHT22;62026;39.230;9.122;2023-05-10T01:33:46;19.30;70.20
67598;DHT22;62026;39.230;9.122;2023-05-10T01:36:58;19.30;70.40
67598;DHT22;62026;39.230;9.122;2023-05-10T01:39:44;19.30;70.60
67598;DHT22;62026;39.230;9.122;2023-05-10T01:42:28;19.20;71.10
67598;DHT22;62026;39.230;9.122;2023-05-10T01:45:18;19.20;71.40
67598;DHT22;62026;39.230;9.122;2023-05-10T01:48:08;19.20;71.70
67598;DHT22;62026;39.230;9.122;2023-05-10T01:50:37;19.20;71.90
67598;DHT22;62026;39.230;9.122;2023-05-10T01:53:10;19.20;72.20
67598;DHT22;62026;39.230;9.122;2023-05-10T01:55:49;19.20;72.30
67598;DHT22;62026;39.230;9.122;2023-05-10T01:58:29;19.20;72.30
67598;DHT22;62026;39.230;9.122;2023-05-10T02:01:00;19.20;72.40
67598;DHT22;62026;39.230;9.122;2023-05-10T02:03:31;19.20;72.40
67598;DHT22;62026;39.230;9.122;2023-05-10T02:06:00;19.20;72.40
67598;DHT22;62026;39.230;9.122;2023-05-10T02:08:27;19.20;72.60
67598;DHT22;62026;39.230;9.122;2023-05-10T02:10:56;19.10;72.70
67598;DHT22;62026;39.230;9.122;2023-05-10T02:13:24;19.10;72.90
67598;DHT22;62026;39.230;9.122;2023-05-10T02:15:53;19.20;72.80
67598;DHT22;62026;39.230;9.122;2023-05-10T02:18:22;19.10;73.10
67598;DHT22;62026;39.230;9.122;2023-05-10T02:20:52;19.10;73.10
67598;DHT22;62026;39.230;9.122;2023-05-10T02:23:21;19.10;73.10
67598;DHT22;62026;39.230;9.122;2023-05-10T02:25:49;19.10;73.00
67598;DHT22;62026;39.230;9.122;2023-05-10T02:28:19;19.10;72.90
67598;DHT22;62026;39.230;9.122;2023-05-10T02:30:49;19.10;73.00
67598;DHT22;62026;39.230;9.122;2023-05-10T02:33:17;19.10;73.00
67598;DHT22;62026;39.230;9.122;2023-05-10T02:35:46;19.10;73.10
67598;DHT22;62026;39.230;9.122;2023-05-10T02:38:14;19.10;73.10
67598;DHT22;62026;39.230;9.122;2023-05-10T02:40:41;19.10;73.10
67598;DHT22;62026;39.230;9.122;2023-05-10T02:43:12;19.10;73.20
67598;DHT22;62026;39.230;9.122;2023-05-10T02:45:42;19.10;73.00
67598;DHT22;62026;39.230;9.122;2023-05-10T02:48:12;19.10;72.90
67598;DHT22;62026;39.230;9.122;2023-05-10T02:50:42;19.10;72.90
67598;DHT22;62026;39.230;9.122;2023-05-10T02:53:15;19.10;72.70
67598;DHT22;62026;39.230;9.122;2023-05-10T02:55:49;19.10;72.70
67598;DHT22;62026;39.230;9.122;2023-05-10T02:58:17;19.00;72.70
67598;DHT22;62026;39.230;9.122;2023-05-10T03:00:46;19.10;72.70
67598;DHT22;62026;39.230;9.122;2023-05-10T03:03:12;19.10;72.60
67598;DHT22;62026;39.230;9.122;2023-05-10T03:05:38;19.00;72.60
67598;DHT22;62026;39.230;9.122;2023-05-10T03:08:05;19.00;72.60
67598;DHT22;62026;39.230;9.122;2023-05-10T03:10:33;19.00;72.60
67598;DHT22;62026;39.230;9.122;2023-05-10T03:16:19;19.00;72.60
67598;DHT22;62026;39.230;9.122;2023-05-10T03:19:15;19.00;72.40
67598;DHT22;62026;39.230;9.122;2023-05-10T03:21:49;18.90;72.30
67598;DHT22;62026;39.230;9.122;2023-05-10T03:24:20;18.90;72.20
67598;DHT22;62026;39.230;9.122;2023-05-10T03:26:49;18.90;72.20
67598;DHT22;62026;39.230;9.122;2023-05-10T03:29:20;18.90;72.30
67598;DHT22;62026;39.230;9.122;2023-05-10T03:31:47;18.90;72.20
67598;DHT22;62026;39.230;9.122;2023-05-10T03:34:14;18.90;72.30
67598;DHT22;62026;39.230;9.122;2023-05-10T03:36:40;18.90;72.10
67598;DHT22;62026;39.230;9.122;2023-05-10T03:39:06;18.90;72.00
67598;DHT22;62026;39.230;9.122;2023-05-10T03:41:33;18.90;72.00
67598;DHT22;62026;39.230;9.122;2023-05-10T03:43:59;18.90;72.00
67598;DHT22;62026;39.230;9.122;2023-05-10T03:46:25;18.90;71.90
67598;DHT22;62026;39.230;9.122;2023-05-10T03:48:52;18.80;71.70
67598;DHT22;62026;39.230;9.122;2023-05-10T03:51:18;18.80;71.80
67598;DHT22;62026;39.230;9.122;2023-05-10T03:53:43;18.80;71.80
67598;DHT22;62026;39.230;9.122;2023-05-10T03:56:10;18.80;71.70
67598;DHT22;62026;39.230;9.122;2023-05-10T03:58:36;18.80;71.80
67598;DHT22;62026;39.230;9.122;2023-05-10T04:01:02;18.80;71.80
67598;DHT22;62026;39.230;9.122;2023-05-10T04:03:29;18.80;71.70
67598;DHT22;62026;39.230;9.122;2023-05-10T04:06:00;18.80;71.70
67598;DHT22;62026;39.230;9.122;2023-05-10T04:08:27;18.80;71.60
67598;DHT22;62026;39.230;9.122;2023-05-10T04:10:53;18.80;71.70
67598;DHT22;62026;39.230;9.122;2023-05-10T04:13:18;18.80;71.70
67598;DHT22;62026;39.230;9.122;2023-05-10T04:15:45;18.80;71.70
67598;DHT22;62026;39.230;9.122;2023-05-10T04:18:11;18.80;71.60
67598;DHT22;62026;39.230;9.122;2023-05-10T04:20:37;18.80;71.50
67598;DHT22;62026;39.230;9.122;2023-05-10T04:23:03;18.80;71.40
67598;DHT22;62026;39.230;9.122;2023-05-10T04:25:29;18.80;71.20
67598;DHT22;62026;39.230;9.122;2023-05-10T04:27:55;18.80;71.20
67598;DHT22;62026;39.230;9.122;2023-05-10T04:30:21;18.80;71.30
67598;DHT22;62026;39.230;9.122;2023-05-10T04:32:47;18.70;71.20
67598;DHT22;62026;39.230;9.122;2023-05-10T04:35:13;18.80;71.20
67598;DHT22;62026;39.230;9.122;2023-05-10T04:37:40;18.80;71.20
67598;DHT22;62026;39.230;9.122;2023-05-10T04:40:06;18.80;71.10
67598;DHT22;62026;39.230;9.122;2023-05-10T04:42:33;18.80;71.30
67598;DHT22;62026;39.230;9.122;2023-05-10T04:44:59;18.70;71.20
67598;DHT22;62026;39.230;9.122;2023-05-10T04:47:25;18.70;71.10
67598;DHT22;62026;39.230;9.122;2023-05-10T04:49:51;18.70;71.00
67598;DHT22;62026;39.230;9.122;2023-05-10T04:52:17;18.70;71.00
67598;DHT22;62026;39.230;9.122;2023-05-10T04:54:43;18.70;70.90
67598;DHT22;62026;39.230;9.122;2023-05-10T04:57:09;18.80;70.90
67598;DHT22;62026;39.230;9.122;2023-05-10T04:59:36;18.70;70.80
67598;DHT22;62026;39.230;9.122;2023-05-10T05:02:03;18.70;70.70
67598;DHT22;62026;39.230;9.122;2023-05-10T05:04:29;18.70;70.80
67598;DHT22;62026;39.230;9.122;2023-05-10T05:06:56;18.70;70.70
67598;DHT22;62026;39.230;9.122;2023-05-10T05:09:22;18.70;70.90
67598;DHT22;62026;39.230;9.122;2023-05-10T05:11:48;18.70;70.80
67598;DHT22;62026;39.230;9.122;2023-05-10T05:14:14;18.70;70.80
67598;DHT22;62026;39.230;9.122;2023-05-10T05:16:40;18.70;70.90
67598;DHT22;62026;39.230;9.122;2023-05-10T05:19:06;18.70;70.80
67598;DHT22;62026;39.230;9.122;2023-05-10T05:21:32;18.70;70.70
67598;DHT22;62026;39.230;9.122;2023-05-10T05:23:58;18.70;70.50
67598;DHT22;62026;39.230;9.122;2023-05-10T05:26:24;18.80;70.30
67598;DHT22;62026;39.230;9.122;2023-05-10T05:28:51;18.80;70.20
67598;DHT22;62026;39.230;9.122;2023-05-10T05:31:20;18.90;70.10
67598;DHT22;62026;39.230;9.122;2023-05-10T05:33:46;19.00;69.90
67598;DHT22;62026;39.230;9.122;2023-05-10T05:36:12;19.10;69.70
67598;DHT22;62026;39.230;9.122;2023-05-10T05:38:38;19.20;69.60
67598;DHT22;62026;39.230;9.122;2023-05-10T05:41:04;19.30;69.20
67598;DHT22;62026;39.230;9.122;2023-05-10T05:43:30;19.40;69.00
67598;DHT22;62026;39.230;9.122;2023-05-10T05:45:56;19.50;68.70
67598;DHT22;62026;39.230;9.122;2023-05-10T05:48:23;19.50;68.60
67598;DHT22;62026;39.230;9.122;2023-05-10T05:50:49;19.50;68.50
67598;DHT22;62026;39.230;9.122;2023-05-10T05:53:16;19.50;68.70
67598;DHT22;62026;39.230;9.122;2023-05-10T05:55:54;19.40;68.70
67598;DHT22;62026;39.230;9.122;2023-05-10T05:58:25;19.40;68.70
67598;DHT22;62026;39.230;9.122;2023-05-10T06:00:53;19.40;68.70
67598;DHT22;62026;39.230;9.122;2023-05-10T06:03:19;19.40;68.60
67598;DHT22;62026;39.230;9.122;2023-05-10T06:05:47;19.40;68.40
67598;DHT22;62026;39.230;9.122;2023-05-10T06:08:13;19.50;68.50
67598;DHT22;62026;39.230;9.122;2023-05-10T06:10:39;19.70;68.20
67598;DHT22;62026;39.230;9.122;2023-05-10T06:13:05;19.80;68.00
67598;DHT22;62026;39.230;9.122;2023-05-10T06:15:31;20.00;67.60
67598;DHT22;62026;39.230;9.122;2023-05-10T06:17:58;20.10;67.10
67598;DHT22;62026;39.230;9.122;2023-05-10T06:20:24;20.30;66.60
67598;DHT22;62026;39.230;9.122;2023-05-10T06:22:50;20.50;66.20
67598;DHT22;62026;39.230;9.122;2023-05-10T06:25:16;20.60;66.00
67598;DHT22;62026;39.230;9.122;2023-05-10T06:27:44;20.60;65.90
67598;DHT22;62026;39.230;9.122;2023-05-10T06:30:10;20.50;65.80
67598;DHT22;62026;39.230;9.122;2023-05-10T06:32:38;20.50;65.80
67598;DHT22;62026;39.230;9.122;2023-05-10T06:35:05;20.60;65.90
67598;DHT22;62026;39.230;9.122;2023-05-10T06:37:31;20.80;65.50
67598;DHT22;62026;39.230;9.122;2023-05-10T06:39:57;20.90;65.00
67598;DHT22;62026;39.230;9.122;2023-05-10T06:42:23;21.00;64.90
67598;DHT22;62026;39.230;9.122;2023-05-10T06:44:51;21.10;64.60
67598;DHT22;62026;39.230;9.122;2023-05-10T06:47:17;21.20;64.20
67598;DHT22;62026;39.230;9.122;2023-05-10T06:49:43;21.40;63.90
67598;DHT22;62026;39.230;9.122;2023-05-10T06:52:09;21.30;63.10
67598;DHT22;62026;39.230;9.122;2023-05-10T06:54:35;21.30;62.80
67598;DHT22;62026;39.230;9.122;2023-05-10T06:57:01;21.30;62.90
67598;DHT22;62026;39.230;9.122;2023-05-10T07:12:30;22.00;62.90
67598;DHT22;62026;39.230;9.122;2023-05-10T07:14:57;22.20;61.20
67598;DHT22;62026;39.230;9.122;2023-05-10T07:17:23;22.30;60.90
67598;DHT22;62026;39.230;9.122;2023-05-10T07:19:49;22.40;60.50
67598;DHT22;62026;39.230;9.122;2023-05-10T07:22:15;22.50;59.80
67598;DHT22;62026;39.230;9.122;2023-05-10T07:24:42;22.70;59.50
67598;DHT22;62026;39.230;9.122;2023-05-10T07:27:08;22.90;58.80
67598;DHT22;62026;39.230;9.122;2023-05-10T07:29:35;23.00;58.50
67598;DHT22;62026;39.230;9.122;2023-05-10T07:32:03;23.00;58.40
67598;DHT22;62026;39.230;9.122;2023-05-10T07:34:29;22.90;58.40
67598;DHT22;62026;39.230;9.122;2023-05-10T07:36:58;22.80;58.70
67598;DHT22;62026;39.230;9.122;2023-05-10T07:39:25;22.90;58.70
67598;DHT22;62026;39.230;9.122;2023-05-10T07:41:52;22.80;58.40
67598;DHT22;62026;39.230;9.122;2023-05-10T07:44:17;22.70;58.20
67598;DHT22;62026;39.230;9.122;2023-05-10T07:46:46;22.70;57.80
67598;DHT22;62026;39.230;9.122;2023-05-10T07:49:13;22.80;57.50
67598;DHT22;62026;39.230;9.122;2023-05-10T07:51:39;22.80;57.00
67598;DHT22;62026;39.230;9.122;2023-05-10T07:54:05;23.00;57.00
67598;DHT22;62026;39.230;9.122;2023-05-10T07:56:32;23.20;57.00
67598;DHT22;62026;39.230;9.122;2023-05-10T07:59:03;23.40;56.40
67598;DHT22;62026;39.230;9.122;2023-05-10T08:01:30;23.50;56.40
67598;DHT22;62026;39.230;9.122;2023-05-10T08:04:00;23.60;56.10
67598;DHT22;62026;39.230;9.122;2023-05-10T08:06:27;23.50;55.90
67598;DHT22;62026;39.230;9.122;2023-05-10T08:08:55;23.50;55.40
67598;DHT22;62026;39.230;9.122;2023-05-10T08:11:22;23.50;55.70
67598;DHT22;62026;39.230;9.122;2023-05-10T08:13:49;23.70;55.70
67598;DHT22;62026;39.230;9.122;2023-05-10T08:16:16;23.70;55.20
67598;DHT22;62026;39.230;9.122;2023-05-10T08:18:44;23.80;54.70
67598;DHT22;62026;39.230;9.122;2023-05-10T08:21:13;23.80;54.70
67598;DHT22;62026;39.230;9.122;2023-05-10T08:23:39;23.90;55.00
67598;DHT22;62026;39.230;9.122;2023-05-10T08:26:06;24.00;54.70
67598;DHT22;62026;39.230;9.122;2023-05-10T08:28:32;24.00;54.20
67598;DHT22;62026;39.230;9.122;2023-05-10T08:30:58;24.00;54.40
67598;DHT22;62026;39.230;9.122;2023-05-10T08:33:24;24.10;54.30
67598;DHT22;62026;39.230;9.122;2023-05-10T08:35:50;24.00;54.40
67598;DHT22;62026;39.230;9.122;2023-05-10T08:38:17;23.80;54.60
67598;DHT22;62026;39.230;9.122;2023-05-10T08:40:44;23.50;55.00
67598;DHT22;62026;39.230;9.122;2023-05-10T08:43:12;23.60;55.40
67598;DHT22;62026;39.230;9.122;2023-05-10T08:45:44;23.60;55.30
67598;DHT22;62026;39.230;9.122;2023-05-10T08:48:14;23.80;55.20
67598;DHT22;62026;39.230;9.122;2023-05-10T08:50:42;23.80;54.10
67598;DHT22;62026;39.230;9.122;2023-05-10T08:53:13;23.80;54.00
67598;DHT22;62026;39.230;9.122;2023-05-10T08:55:41;23.70;54.20
67598;DHT22;62026;39.230;9.122;2023-05-10T08:58:08;23.80;53.80
67598;DHT22;62026;39.230;9.122;2023-05-10T09:00:35;23.80;54.20
67598;DHT22;62026;39.230;9.122;2023-05-10T09:03:04;23.60;53.80
67598;DHT22;62026;39.230;9.122;2023-05-10T09:05:31;23.50;54.10
67598;DHT22;62026;39.230;9.122;2023-05-10T09:07:57;23.60;53.80
67598;DHT22;62026;39.230;9.122;2023-05-10T09:10:26;23.60;53.50
67598;DHT22;62026;39.230;9.122;2023-05-10T09:12:56;23.60;53.80
67598;DHT22;62026;39.230;9.122;2023-05-10T09:15:23;23.70;53.30
67598;DHT22;62026;39.230;9.122;2023-05-10T09:17:50;23.70;52.80
67598;DHT22;62026;39.230;9.122;2023-05-10T09:20:16;23.80;52.30
67598;DHT22;62026;39.230;9.122;2023-05-10T09:22:46;23.70;52.80
67598;DHT22;62026;39.230;9.122;2023-05-10T09:25:16;23.60;53.40
67598;DHT22;62026;39.230;9.122;2023-05-10T09:27:47;23.60;53.10
67598;DHT22;62026;39.230;9.122;2023-05-10T09:30:18;23.80;52.10
67598;DHT22;62026;39.230;9.122;2023-05-10T09:32:50;24.00;50.90
67598;DHT22;62026;39.230;9.122;2023-05-10T09:35:19;24.20;50.30
67598;DHT22;62026;39.230;9.122;2023-05-10T09:37:49;24.20;49.90
67598;DHT22;62026;39.230;9.122;2023-05-10T09:40:18;24.40;49.70
67598;DHT22;62026;39.230;9.122;2023-05-10T09:43:06;24.40;49.60
67598;DHT22;62026;39.230;9.122;2023-05-10T09:45:35;24.40;49.50
67598;DHT22;62026;39.230;9.122;2023-05-10T09:48:02;24.50;49.30
67598;DHT22;62026;39.230;9.122;2023-05-10T09:50:29;24.50;49.30
67598;DHT22;62026;39.230;9.122;2023-05-10T09:53:00;24.10;50.10
67598;DHT22;62026;39.230;9.122;2023-05-10T09:55:38;24.00;50.50
67598;DHT22;62026;39.230;9.122;2023-05-10T09:58:06;23.90;50.00
67598;DHT22;62026;39.230;9.122;2023-05-10T10:00:43;23.80;49.70
67598;DHT22;62026;39.230;9.122;2023-05-10T10:03:15;23.90;49.50
67598;DHT22;62026;39.230;9.122;2023-05-10T10:05:46;24.00;50.00
67598;DHT22;62026;39.230;9.122;2023-05-10T10:08:14;23.90;50.00
67598;DHT22;62026;39.230;9.122;2023-05-10T10:10:41;23.90;49.20
67598;DHT22;62026;39.230;9.122;2023-05-10T10:13:09;23.90;49.10
67598;DHT22;62026;39.230;9.122;2023-05-10T10:15:36;24.00;48.90
67598;DHT22;62026;39.230;9.122;2023-05-10T10:18:03;23.90;48.80
67598;DHT22;62026;39.230;9.122;2023-05-10T10:20:30;24.10;49.10
67598;DHT22;62026;39.230;9.122;2023-05-10T10:22:56;24.00;49.40
67598;DHT22;62026;39.230;9.122;2023-05-10T10:25:22;23.90;48.90
67598;DHT22;62026;39.230;9.122;2023-05-10T10:35:46;23.90;49.20
67598;DHT22;62026;39.230;9.122;2023-05-10T10:38:13;24.00;49.00
67598;DHT22;62026;39.230;9.122;2023-05-10T10:40:39;23.80;49.70
67598;DHT22;62026;39.230;9.122;2023-05-10T10:43:24;23.80;49.80
67598;DHT22;62026;39.230;9.122;2023-05-10T10:46:17;23.70;48.70
67598;DHT22;62026;39.230;9.122;2023-05-10T10:51:38;23.60;48.50
67598;DHT22;62026;39.230;9.122;2023-05-10T10:54:11;23.50;49.30
67598;DHT22;62026;39.230;9.122;2023-05-10T10:56:37;23.60;49.50
67598;DHT22;62026;39.230;9.122;2023-05-10T10:59:03;23.60;49.00
67598;DHT22;62026;39.230;9.122;2023-05-10T11:01:33;23.50;48.30
67598;DHT22;62026;39.230;9.122;2023-05-10T11:06:30;23.60;48.80
67598;DHT22;62026;39.230;9.122;2023-05-10T11:08:58;23.60;48.50
67598;DHT22;62026;39.230;9.122;2023-05-10T11:11:24;23.60;48.50
67598;DHT22;62026;39.230;9.122;2023-05-10T11:13:51;23.80;47.10
67598;DHT22;62026;39.230;9.122;2023-05-10T11:16:21;23.80;47.10
67598;DHT22;62026;39.230;9.122;2023-05-10T11:21:22;23.50;46.80
67598;DHT22;62026;39.230;9.122;2023-05-10T11:23:51;23.70;47.00
67598;DHT22;62026;39.230;9.122;2023-05-10T11:26:22;23.70;47.20
67598;DHT22;62026;39.230;9.122;2023-05-10T11:28:52;23.70;46.10
67598;DHT22;62026;39.230;9.122;2023-05-10T11:31:22;23.80;46.20
67598;DHT22;62026;39.230;9.122;2023-05-10T11:33:51;23.80;46.30
67598;DHT22;62026;39.230;9.122;2023-05-10T11:36:26;23.90;46.30
67598;DHT22;62026;39.230;9.122;2023-05-10T11:38:55;23.80;45.80
67598;DHT22;62026;39.230;9.122;2023-05-10T11:41:22;23.80;46.10
67598;DHT22;62026;39.230;9.122;2023-05-10T11:43:51;23.80;46.30
67598;DHT22;62026;39.230;9.122;2023-05-10T11:46:21;23.80;46.60
67598;DHT22;62026;39.230;9.122;2023-05-10T11:48:55;23.70;46.40
67598;DHT22;62026;39.230;9.122;2023-05-10T11:51:24;23.70;46.30
67598;DHT22;62026;39.230;9.122;2023-05-10T11:53:53;23.70;46.10
67598;DHT22;62026;39.230;9.122;2023-05-10T11:56:21;23.60;46.60
67598;DHT22;62026;39.230;9.122;2023-05-10T11:58:53;23.70;46.50
67598;DHT22;62026;39.230;9.122;2023-05-10T12:01:21;23.70;46.90
67598;DHT22;62026;39.230;9.122;2023-05-10T12:03:49;23.70;47.90
67598;DHT22;62026;39.230;9.122;2023-05-10T12:06:20;23.60;48.10
67598;DHT22;62026;39.230;9.122;2023-05-10T12:08:48;23.60;48.40
67598;DHT22;62026;39.230;9.122;2023-05-10T12:11:19;23.60;46.70
67598;DHT22;62026;39.230;9.122;2023-05-10T12:13:47;23.60;47.00
67598;DHT22;62026;39.230;9.122;2023-05-10T12:18:45;23.60;46.60
67598;DHT22;62026;39.230;9.122;2023-05-10T12:21:15;23.60;46.70
67598;DHT22;62026;39.230;9.122;2023-05-10T12:23:41;23.60;47.40
67598;DHT22;62026;39.230;9.122;2023-05-10T12:26:11;23.60;47.20
67598;DHT22;62026;39.230;9.122;2023-05-10T12:28:37;23.60;47.10
67598;DHT22;62026;39.230;9.122;2023-05-10T12:31:06;23.50;47.20
67598;DHT22;62026;39.230;9.122;2023-05-10T12:33:40;23.50;47.70
67598;DHT22;62026;39.230;9.122;2023-05-10T12:36:12;23.40;48.10
67598;DHT22;62026;39.230;9.122;2023-05-10T12:38:42;23.40;48.30
67598;DHT22;62026;39.230;9.122;2023-05-10T12:41:11;23.40;48.50
67598;DHT22;62026;39.230;9.122;2023-05-10T12:43:39;23.40;48.40
67598;DHT22;62026;39.230;9.122;2023-05-10T12:46:10;23.40;48.80
67598;DHT22;62026;39.230;9.122;2023-05-10T12:48:39;23.40;48.80
67598;DHT22;62026;39.230;9.122;2023-05-10T12:51:06;23.40;48.80
67598;DHT22;62026;39.230;9.122;2023-05-10T12:53:37;23.30;46.30
67598;DHT22;62026;39.230;9.122;2023-05-10T12:56:05;23.30;48.20
67598;DHT22;62026;39.230;9.122;2023-05-10T12:58:31;23.40;48.60
67598;DHT22;62026;39.230;9.122;2023-05-10T13:00:58;23.30;48.60
67598;DHT22;62026;39.230;9.122;2023-05-10T13:03:25;23.30;48.40
67598;DHT22;62026;39.230;9.122;2023-05-10T13:05:51;23.30;48.40
67598;DHT22;62026;39.230;9.122;2023-05-10T13:08:17;23.30;48.50
67598;DHT22;62026;39.230;9.122;2023-05-10T13:10:43;23.30;48.60
67598;DHT22;62026;39.230;9.122;2023-05-10T13:13:10;23.30;48.80
67598;DHT22;62026;39.230;9.122;2023-05-10T13:15:36;23.30;48.60
67598;DHT22;62026;39.230;9.122;2023-05-10T13:18:02;23.30;48.20
67598;DHT22;62026;39.230;9.122;2023-05-10T13:20:28;23.20;48.10
67598;DHT22;62026;39.230;9.122;2023-05-10T13:22:54;23.20;48.40
67598;DHT22;62026;39.230;9.122;2023-05-10T13:25:20;23.20;47.90
67598;DHT22;62026;39.230;9.122;2023-05-10T13:27:46;23.20;48.30
67598;DHT22;62026;39.230;9.122;2023-05-10T13:30:12;23.30;48.50
67598;DHT22;62026;39.230;9.122;2023-05-10T13:32:38;23.30;48.70
67598;DHT22;62026;39.230;9.122;2023-05-10T13:35:05;23.30;48.40
67598;DHT22;62026;39.230;9.122;2023-05-10T13:37:32;23.30;48.40
67598;DHT22;62026;39.230;9.122;2023-05-10T13:40:01;23.20;48.80
67598;DHT22;62026;39.230;9.122;2023-05-10T13:42:27;23.20;48.50
67598;DHT22;62026;39.230;9.122;2023-05-10T13:44:53;23.20;47.50
67598;DHT22;62026;39.230;9.122;2023-05-10T13:47:20;23.10;47.50
67598;DHT22;62026;39.230;9.122;2023-05-10T13:49:47;23.20;48.00
67598;DHT22;62026;39.230;9.122;2023-05-10T13:52:13;23.20;48.50
67598;DHT22;62026;39.230;9.122;2023-05-10T13:54:39;23.40;47.40
67598;DHT22;62026;39.230;9.122;2023-05-10T13:57:05;23.30;47.60
67598;DHT22;62026;39.230;9.122;2023-05-10T13:59:32;23.20;47.60
67598;DHT22;62026;39.230;9.122;2023-05-10T14:01:58;23.10;48.10
67598;DHT22;62026;39.230;9.122;2023-05-10T14:04:25;23.10;48.30
67598;DHT22;62026;39.230;9.122;2023-05-10T14:06:51;23.10;48.40
67598;DHT22;62026;39.230;9.122;2023-05-10T14:09:18;23.10;48.60
67598;DHT22;62026;39.230;9.122;2023-05-10T14:11:45;23.10;47.50
67598;DHT22;62026;39.230;9.122;2023-05-10T14:14:11;23.20;47.30
67598;DHT22;62026;39.230;9.122;2023-05-10T14:16:42;23.10;47.20
67598;DHT22;62026;39.230;9.122;2023-05-10T14:19:09;23.10;46.70
67598;DHT22;62026;39.230;9.122;2023-05-10T14:21:37;23.10;47.20
67598;DHT22;62026;39.230;9.122;2023-05-10T14:24:03;23.00;46.60
67598;DHT22;62026;39.230;9.122;2023-05-10T14:26:30;23.10;47.00
67598;DHT22;62026;39.230;9.122;2023-05-10T14:28:56;23.00;47.30
67598;DHT22;62026;39.230;9.122;2023-05-10T14:31:22;23.00;47.10
67598;DHT22;62026;39.230;9.122;2023-05-10T14:33:50;22.90;46.70
67598;DHT22;62026;39.230;9.122;2023-05-10T14:36:17;22.90;46.80
67598;DHT22;62026;39.230;9.122;2023-05-10T14:38:43;22.80;47.00
67598;DHT22;62026;39.230;9.122;2023-05-10T14:41:09;22.90;47.10
67598;DHT22;62026;39.230;9.122;2023-05-10T14:43:39;22.90;46.30
67598;DHT22;62026;39.230;9.122;2023-05-10T14:46:06;22.90;46.20
67598;DHT22;62026;39.230;9.122;2023-05-10T14:48:32;22.90;46.40
67598;DHT22;62026;39.230;9.122;2023-05-10T14:50:58;22.90;46.50
67598;DHT22;62026;39.230;9.122;2023-05-10T14:53:24;22.90;46.20
67598;DHT22;62026;39.230;9.122;2023-05-10T14:55:50;22.90;46.70
67598;DHT22;62026;39.230;9.122;2023-05-10T14:58:17;22.90;46.70
67598;DHT22;62026;39.230;9.122;2023-05-10T15:00:43;22.80;46.50
67598;DHT22;62026;39.230;9.122;2023-05-10T15:03:09;22.90;47.10
67598;DHT22;62026;39.230;9.122;2023-05-10T15:05:35;22.80;46.80
67598;DHT22;62026;39.230;9.122;2023-05-10T15:08:03;22.80;46.20
67598;DHT22;62026;39.230;9.122;2023-05-10T15:10:30;22.80;45.80
67598;DHT22;62026;39.230;9.122;2023-05-10T15:12:57;22.80;45.60
67598;DHT22;62026;39.230;9.122;2023-05-10T15:15:24;22.80;45.30
67598;DHT22;62026;39.230;9.122;2023-05-10T15:17:50;22.80;44.90
67598;DHT22;62026;39.230;9.122;2023-05-10T15:20:16;22.70;44.90
67598;DHT22;62026;39.230;9.122;2023-05-10T15:22:42;22.70;45.00
67598;DHT22;62026;39.230;9.122;2023-05-10T15:25:09;22.60;45.20
67598;DHT22;62026;39.230;9.122;2023-05-10T15:27:35;22.60;44.70
67598;DHT22;62026;39.230;9.122;2023-05-10T15:30:01;22.60;44.50
67598;DHT22;62026;39.230;9.122;2023-05-10T15:32:27;22.60;44.40
67598;DHT22;62026;39.230;9.122;2023-05-10T15:34:54;22.60;45.30
67598;DHT22;62026;39.230;9.122;2023-05-10T15:37:21;22.60;45.80
67598;DHT22;62026;39.230;9.122;2023-05-10T15:39:49;22.50;46.80
67598;DHT22;62026;39.230;9.122;2023-05-10T15:42:15;22.60;46.50
67598;DHT22;62026;39.230;9.122;2023-05-10T15:44:41;22.50;46.70
67598;DHT22;62026;39.230;9.122;2023-05-10T15:47:09;22.50;46.40
67598;DHT22;62026;39.230;9.122;2023-05-10T15:49:35;22.40;46.70
67598;DHT22;62026;39.230;9.122;2023-05-10T15:52:01;22.40;46.90
67598;DHT22;62026;39.230;9.122;2023-05-10T15:54:27;22.40;46.70
67598;DHT22;62026;39.230;9.122;2023-05-10T15:56:53;22.40;46.90
67598;DHT22;62026;39.230;9.122;2023-05-10T15:59:20;22.40;47.40
67598;DHT22;62026;39.230;9.122;2023-05-10T16:01:46;22.40;47.40
67598;DHT22;62026;39.230;9.122;2023-05-10T16:04:12;22.40;46.30
67598;DHT22;62026;39.230;9.122;2023-05-10T16:06:38;22.30;46.00
67598;DHT22;62026;39.230;9.122;2023-05-10T16:09:04;22.20;46.40
67598;DHT22;62026;39.230;9.122;2023-05-10T16:11:30;22.20;46.50
67598;DHT22;62026;39.230;9.122;2023-05-10T16:13:56;22.20;46.50
67598;DHT22;62026;39.230;9.122;2023-05-10T16:16:23;22.10;46.60
67598;DHT22;62026;39.230;9.122;2023-05-10T16:18:49;22.10;46.00